Time;durP1;ratioP1;P1;durP2;ratioP2;P2;SDS_P1;SDS_P2;PMS_P1;PMS_P2;Temp;Humidity;BMP_temperature;BMP_pressure;BME280_temperature;BME280_humidity;BME280_pressure;Samples;Min_cycle;Max_cycle;Signal;HPM_P1;HPM_P2
2022/09/24 00:01:55;;;;;;;5.10;4.50;;;;;;;8.71;55.85;95264.13;4982331;28;20231;-71
2022/09/24 00:04:24;;;;;;;5.57;4.72;;;;;;;8.52;56.35;95258.84;4981466;28;20224;-71
2022/09/24 00:06:50;;;;;;;4.45;3.83;;;;;;;8.72;56.00;95259.75;4984484;28;20698;-73
2022/09/24 00:09:18;;;;;;;6.47;5.32;;;;;;;8.84;55.65;95261.28;4986347;28;20243;-72
2022/09/24 00:11:44;;;;;;;5.25;4.28;;;;;;;8.84;55.25;95264.72;5015510;28;20207;-73
2022/09/24 00:14:10;;;;;;;7.25;5.30;;;;;;;8.82;55.49;95258.81;4982720;28;20230;-73
2022/09/24 00:16:36;;;;;;;7.35;6.22;;;;;;;8.84;56.34;95269.13;4979838;28;20242;-72
2022/09/24 00:19:02;;;;;;;7.65;6.30;;;;;;;8.94;56.79;95259.50;4985447;28;20223;-74
2022/09/24 00:21:30;;;;;;;7.28;6.45;;;;;;;8.73;57.13;95253.53;4986706;28;21358;-72
2022/09/24 00:23:59;;;;;;;7.68;6.43;;;;;;;8.90;56.71;95260.75;4989971;28;20215;-73
2022/09/24 00:29:11;;;;;;;7.32;6.05;;;;;;;8.62;57.11;95257.09;4990492;28;20227;-74
2022/09/24 00:31:37;;;;;;;6.75;6.07;;;;;;;8.61;57.13;95264.13;4991327;28;20226;-72
2022/09/24 00:34:03;;;;;;;7.65;6.38;;;;;;;8.38;57.89;95260.00;4988840;28;20936;-74
2022/09/24 00:36:28;;;;;;;6.43;5.82;;;;;;;8.24;58.16;95263.00;4990605;28;20310;-72
2022/09/24 00:38:57;;;;;;;6.10;5.50;;;;;;;8.30;57.72;95258.03;4990000;28;20298;-73
2022/09/24 00:41:26;;;;;;;6.22;5.53;;;;;;;8.18;58.61;95259.13;4986542;28;20223;-73
2022/09/24 00:43:52;;;;;;;6.47;5.30;;;;;;;8.31;58.10;95254.47;4991626;28;20254;-72
2022/09/24 00:46:43;;;;;;;7.73;5.77;;;;;;;8.43;58.24;95251.78;5002543;28;20798;-72
2022/09/24 00:49:14;;;;;;;6.93;5.78;;;;;;;8.43;58.41;95250.00;4988030;28;20231;-72
2022/09/24 00:51:42;;;;;;;7.20;4.90;;;;;;;8.31;58.09;95258.88;4989851;28;20228;-71
2022/09/24 00:54:13;;;;;;;5.60;5.10;;;;;;;8.15;58.57;95251.50;4989102;28;20207;-73
2022/09/24 00:56:42;;;;;;;5.93;5.40;;;;;;;8.21;58.40;95253.59;4984612;28;20223;-72
2022/09/24 00:59:10;;;;;;;7.57;5.73;;;;;;;8.05;58.37;95254.09;4983990;28;20246;-72
2022/09/24 01:01:36;;;;;;;5.80;5.00;;;;;;;8.05;57.87;95253.25;4991797;28;20262;-72
2022/09/24 01:04:03;;;;;;;5.37;4.87;;;;;;;7.93;57.21;95239.41;4984276;28;20223;-72
2022/09/24 01:06:29;;;;;;;5.37;4.30;;;;;;;7.91;57.32;95244.78;4986004;28;20628;-73
2022/09/24 01:08:56;;;;;;;5.77;4.60;;;;;;;7.98;56.92;95239.03;4986476;28;20324;-72
2022/09/24 01:11:40;;;;;;;4.55;4.15;;;;;;;8.01;56.41;95241.38;4988434;28;20286;-71
2022/09/24 01:14:25;;;;;;;4.53;4.13;;;;;;;8.03;55.86;95245.53;4987751;28;20740;-72
2022/09/24 01:17:13;;;;;;;4.30;3.90;;;;;;;8.21;55.71;95247.53;5020862;28;20231;-72
2022/09/24 01:20:16;;;;;;;4.38;3.97;;;;;;;8.05;55.98;95234.94;5015587;28;20231;-72
2022/09/24 01:22:41;;;;;;;4.43;4.03;;;;;;;8.04;56.29;95238.50;4985482;28;20593;-72
2022/09/24 01:25:36;;;;;;;4.40;4.00;;;;;;;7.96;57.16;95244.38;4978803;28;20256;-73
2022/09/24 01:28:39;;;;;;;5.90;4.40;;;;;;;8.04;56.67;95241.94;4970914;28;20227;-73
2022/09/24 01:31:14;;;;;;;6.70;4.47;;;;;;;8.06;56.43;95231.34;4980516;28;20970;-72
2022/09/24 01:33:41;;;;;;;4.83;4.37;;;;;;;7.99;56.75;95240.66;4967156;28;20223;-70
2022/09/24 01:36:08;;;;;;;5.20;4.57;;;;;;;8.06;57.45;95232.16;4970224;28;20223;-72
2022/09/24 01:38:46;;;;;;;6.53;4.90;;;;;;;7.88;58.10;95237.16;4969626;28;20229;-72
2022/09/24 01:41:15;;;;;;;6.70;4.97;;;;;;;7.92;57.88;95229.91;4968175;28;20227;-73
2022/09/24 01:43:41;;;;;;;6.30;5.40;;;;;;;8.00;58.06;95239.72;4964831;28;20232;-73
2022/09/24 01:46:08;;;;;;;6.70;6.05;;;;;;;7.99;58.20;95240.66;4971279;28;20644;-72
2022/09/24 01:48:38;;;;;;;5.80;5.20;;;;;;;7.82;59.14;95244.72;4969302;28;20594;-73
2022/09/24 01:51:19;;;;;;;6.07;5.33;;;;;;;7.76;58.74;95247.88;4968764;28;20318;-72
2022/09/24 01:53:54;;;;;;;6.30;5.73;;;;;;;7.82;58.83;95249.97;4968896;28;20243;-72
2022/09/24 01:56:26;;;;;;;6.17;5.57;;;;;;;7.80;59.33;95246.63;4969258;28;20259;-72
2022/09/24 01:59:18;;;;;;;7.73;5.60;;;;;;;7.90;59.17;95250.97;4963369;28;20232;-71
2022/09/24 02:01:57;;;;;;;5.83;5.20;;;;;;;7.69;59.50;95250.97;4947528;28;20728;-72
2022/09/24 02:04:27;;;;;;;5.93;4.97;;;;;;;7.53;59.35;95255.00;4933732;28;20270;-72
2022/09/24 02:07:12;;;;;;;6.80;4.53;;;;;;;7.49;59.49;95262.28;4934640;28;20272;-71
2022/09/24 02:09:42;;;;;;;5.40;4.90;;;;;;;7.40;59.67;95256.00;4947237;28;20307;-70
2022/09/24 02:12:18;;;;;;;5.40;4.90;;;;;;;7.45;60.22;95259.06;4948711;28;20303;-72
2022/09/24 02:14:48;;;;;;;6.93;6.17;;;;;;;7.31;60.75;95262.00;4949466;28;20267;-72
2022/09/24 02:17:14;;;;;;;6.30;5.70;;;;;;;7.45;60.52;95277.41;4946881;28;20236;-72
2022/09/24 02:19:40;;;;;;;6.20;5.60;;;;;;;7.36;61.22;95265.09;4932336;28;20268;-71
2022/09/24 02:22:08;;;;;;;6.07;5.03;;;;;;;7.49;60.62;95275.38;4935333;28;20221;-71
2022/09/24 02:24:54;;;;;;;6.18;5.10;;;;;;;7.38;60.08;95270.19;4934338;28;20224;-72
2022/09/24 02:27:20;;;;;;;5.77;5.17;;;;;;;7.23;60.16;95273.09;4935938;28;20569;-72
2022/09/24 02:29:47;;;;;;;5.83;5.00;;;;;;;7.20;60.76;95280.38;4935269;28;20209;-72
2022/09/24 02:32:17;;;;;;;7.27;5.20;;;;;;;7.16;60.35;95286.78;4940797;28;20236;-72
2022/09/24 02:34:50;;;;;;;6.60;5.57;;;;;;;7.19;60.74;95289.16;4930075;28;20392;-71
2022/09/24 02:37:16;;;;;;;9.33;6.47;;;;;;;7.29;60.77;95290.91;4934913;28;20218;-72
2022/09/24 02:39:42;;;;;;;6.90;5.87;;;;;;;7.36;60.36;95293.84;4980936;28;20239;-71
2022/09/24 02:42:13;;;;;;;7.97;6.10;;;;;;;7.25;61.05;95288.69;4979277;28;20232;-71
2022/09/24 02:44:38;;;;;;;7.77;5.60;;;;;;;7.27;61.04;95298.06;4985458;28;20208;-71
2022/09/24 02:47:05;;;;;;;8.23;5.90;;;;;;;7.14;61.17;95294.78;4985647;28;20223;-72
2022/09/24 02:49:31;;;;;;;6.87;5.77;;;;;;;7.14;61.25;95300.00;4980599;28;20223;-71
2022/09/24 02:51:56;;;;;;;6.63;5.80;;;;;;;7.23;60.88;95290.59;4986782;28;20273;-72
2022/09/24 02:54:23;;;;;;;7.10;6.33;;;;;;;7.15;61.49;95300.84;4982554;28;20220;-72
2022/09/24 02:56:50;;;;;;;6.43;5.73;;;;;;;7.15;61.36;95298.22;4988509;28;20210;-71
2022/09/24 02:59:15;;;;;;;11.57;6.10;;;;;;;7.05;61.15;95303.34;4982668;28;20256;-71
2022/09/24 03:01:41;;;;;;;10.03;6.30;;;;;;;7.00;61.21;95308.97;4989034;28;20239;-71
2022/09/24 03:04:06;;;;;;;9.33;6.00;;;;;;;7.10;61.11;95309.03;4985682;28;20754;-71
2022/09/24 03:06:32;;;;;;;6.57;5.93;;;;;;;7.06;61.47;95305.03;4988240;28;20235;-72
2022/09/24 03:08:58;;;;;;;7.23;6.30;;;;;;;6.87;62.26;95304.81;4984946;28;20238;-72
2022/09/24 03:11:24;;;;;;;9.33;6.33;;;;;;;7.21;61.15;95302.94;4983061;28;20247;-72
2022/09/24 03:13:50;;;;;;;6.97;5.90;;;;;;;6.89;61.45;95305.53;4973711;28;20219;-73
2022/09/24 03:16:17;;;;;;;6.73;6.13;;;;;;;6.89;61.72;95303.75;4981751;28;20227;-72
2022/09/24 03:18:42;;;;;;;7.13;6.50;;;;;;;6.87;62.30;95294.34;5018814;28;20225;-72
2022/09/24 03:21:11;;;;;;;7.30;6.70;;;;;;;6.93;62.58;95299.94;4986196;28;20216;-71
2022/09/24 03:23:37;;;;;;;8.63;6.90;;;;;;;6.77;63.77;95297.72;4989821;28;20207;-71
2022/09/24 03:26:03;;;;;;;10.27;8.23;;;;;;;6.80;63.79;95301.88;4983807;28;20283;-71
2022/09/24 03:28:29;;;;;;;8.50;7.70;;;;;;;6.89;63.99;95310.75;4988851;28;20223;-71
2022/09/24 03:31:00;;;;;;;10.63;7.67;;;;;;;6.75;64.05;95304.84;4983515;28;20223;-71
2022/09/24 03:33:30;;;;;;;8.23;7.43;;;;;;;6.91;63.68;95303.63;4978000;28;20223;-71
2022/09/24 03:35:58;;;;;;;9.53;8.53;;;;;;;6.94;63.55;95312.06;4986948;28;20211;-71
2022/09/24 03:38:24;;;;;;;9.27;8.37;;;;;;;6.75;64.48;95325.75;4985227;28;20414;-71
2022/09/24 03:40:49;;;;;;;9.93;8.20;;;;;;;6.75;64.09;95320.53;4985680;28;20230;-72
2022/09/24 03:43:15;;;;;;;8.63;7.83;;;;;;;6.70;64.38;95325.28;4987066;28;20220;-70
2022/09/24 03:45:40;;;;;;;10.97;9.33;;;;;;;6.76;64.17;95323.97;4983655;28;20219;-71
2022/09/24 03:48:05;;;;;;;9.97;9.07;;;;;;;6.67;64.96;95324.69;4988163;28;20234;-71
2022/09/24 03:50:34;;;;;;;11.13;9.77;;;;;;;6.50;65.52;95326.84;4987331;28;20687;-72
2022/09/24 03:53:00;;;;;;;10.80;9.80;;;;;;;6.62;65.04;95331.09;4989004;28;20247;-72
2022/09/24 03:55:25;;;;;;;10.43;9.43;;;;;;;6.84;64.36;95316.34;4980306;28;20247;-73
2022/09/24 03:57:50;;;;;;;9.93;8.90;;;;;;;6.83;64.03;95331.19;4989623;28;20227;-72
2022/09/24 04:00:16;;;;;;;12.30;9.33;;;;;;;7.06;63.37;95325.94;4985862;28;20211;-72
2022/09/24 04:02:41;;;;;;;10.50;9.40;;;;;;;6.88;63.34;95324.78;4991755;28;20752;-70
2022/09/24 04:05:07;;;;;;;11.63;10.47;;;;;;;6.74;63.98;95331.13;4989902;28;20259;-71
2022/09/24 04:07:33;;;;;;;10.40;9.40;;;;;;;6.77;64.13;95333.47;4984970;28;20223;-74
2022/09/24 04:09:58;;;;;;;11.10;10.10;;;;;;;6.59;64.50;95326.13;4990410;28;20693;-71
2022/09/24 04:12:23;;;;;;;11.57;10.37;;;;;;;6.54;64.40;95327.44;4989612;28;20227;-71
2022/09/24 04:14:49;;;;;;;10.93;9.30;;;;;;;6.50;64.47;95337.28;4991140;28;20686;-71
2022/09/24 04:17:16;;;;;;;13.53;10.03;;;;;;;6.49;65.03;95327.78;4985102;28;20247;-71
2022/09/24 04:19:42;;;;;;;10.40;9.30;;;;;;;6.58;64.66;95332.31;5000707;28;20238;-72
2022/09/24 04:22:07;;;;;;;10.83;9.73;;;;;;;6.57;64.22;95333.25;4986118;28;20220;-71
2022/09/24 04:24:33;;;;;;;11.60;9.83;;;;;;;6.46;64.59;95335.84;4986899;28;20711;-73
2022/09/24 04:26:58;;;;;;;11.03;9.47;;;;;;;6.47;64.80;95334.06;4990613;28;20217;-72
2022/09/24 04:29:24;;;;;;;12.30;9.20;;;;;;;6.40;65.02;95346.78;4991711;28;20224;-72
2022/09/24 04:31:49;;;;;;;10.80;8.97;;;;;;;6.40;65.09;95354.63;4986993;28;20281;-70
2022/09/24 04:34:14;;;;;;;9.73;8.67;;;;;;;6.38;65.19;95357.34;4987495;28;20219;-71
2022/09/24 04:36:40;;;;;;;10.03;9.13;;;;;;;6.29;65.49;95360.66;4986121;28;20343;-71
2022/09/24 04:39:05;;;;;;;11.37;9.00;;;;;;;6.36;65.36;95355.78;4988345;28;20211;-71
2022/09/24 04:41:31;;;;;;;9.23;8.27;;;;;;;6.53;64.85;95363.19;4986533;28;20294;-71
2022/09/24 04:43:57;;;;;;;9.90;8.37;;;;;;;6.56;64.47;95355.09;4986492;28;20286;-72
2022/09/24 04:46:22;;;;;;;11.10;8.10;;;;;;;6.43;64.65;95351.78;5015523;28;20819;-72
2022/09/24 04:48:48;;;;;;;9.03;8.17;;;;;;;6.72;64.16;95351.31;4989503;28;20234;-71
2022/09/24 04:51:16;;;;;;;10.27;7.80;;;;;;;6.71;63.42;95353.09;4988662;28;20211;-72
2022/09/24 04:53:41;;;;;;;9.10;7.40;;;;;;;6.73;63.20;95347.72;4987269;28;20231;-72
2022/09/24 04:56:10;;;;;;;10.13;8.13;;;;;;;6.63;63.68;95353.69;4987596;28;20271;-71
2022/09/24 04:58:37;;;;;;;9.23;8.10;;;;;;;6.49;64.39;95351.28;4992477;28;20223;-71
2022/09/24 05:01:03;;;;;;;16.60;9.13;;;;;;;6.71;63.70;95354.84;4982111;28;20225;-70
2022/09/24 05:03:29;;;;;;;10.63;8.00;;;;;;;6.44;64.67;95361.25;4978508;28;20224;-73
2022/09/24 05:05:55;;;;;;;10.83;8.30;;;;;;;6.52;64.28;95351.09;4991388;28;20219;-71
2022/09/24 05:08:21;;;;;;;9.27;8.37;;;;;;;6.61;64.34;95352.13;4988198;28;20224;-71
2022/09/24 05:10:47;;;;;;;9.10;8.20;;;;;;;6.56;65.08;95360.31;4984834;28;20224;-71
2022/09/24 05:13:13;;;;;;;9.07;8.17;;;;;;;6.88;64.16;95359.59;4989164;28;20224;-73
2022/09/24 05:15:38;;;;;;;10.40;9.00;;;;;;;7.03;63.54;95355.78;4988571;28;20794;-71
2022/09/24 05:18:05;;;;;;;11.10;9.57;;;;;;;6.92;63.69;95358.38;4987921;28;20326;-73
2022/09/24 05:20:31;;;;;;;10.37;9.20;;;;;;;6.89;63.80;95356.03;4984680;28;20199;-73
2022/09/24 05:22:56;;;;;;;10.57;9.47;;;;;;;7.02;63.63;95361.13;4987701;28;20318;-73
2022/09/24 05:25:22;;;;;;;12.30;10.87;;;;;;;7.09;63.48;95364.09;4989582;28;20310;-73
2022/09/24 05:27:53;;;;;;;10.63;9.63;;;;;;;7.00;64.00;95358.66;4985023;28;20240;-74
2022/09/24 05:30:20;;;;;;;11.03;9.90;;;;;;;7.00;63.94;95353.41;4987009;28;20216;-73
2022/09/24 05:32:50;;;;;;;10.43;9.17;;;;;;;7.09;63.90;95361.47;4985025;28;20331;-73
2022/09/24 05:35:19;;;;;;;11.10;9.93;;;;;;;7.22;63.57;95354.31;4988175;28;20285;-71
2022/09/24 05:37:47;;;;;;;11.63;10.40;;;;;;;7.23;63.43;95361.19;4987921;28;20228;-70
2022/09/24 05:43:00;;;;;;;11.77;10.23;;;;;;;7.60;62.56;95374.75;4984058;28;20282;-72
2022/09/24 05:45:26;;;;;;;11.37;10.27;;;;;;;7.70;61.18;95377.47;4986709;28;20220;-72
2022/09/24 05:47:51;;;;;;;12.20;10.27;;;;;;;7.58;61.49;95375.84;4990094;28;20220;-72
2022/09/24 05:50:17;;;;;;;10.30;9.30;;;;;;;7.60;60.76;95381.78;4985980;28;20278;-73
2022/09/24 05:52:42;;;;;;;9.57;8.77;;;;;;;7.42;60.59;95374.44;4987729;28;20298;-72
2022/09/24 05:55:09;;;;;;;10.30;9.10;;;;;;;7.49;60.38;95378.25;4993044;28;20230;-70
2022/09/24 05:57:35;;;;;;;11.17;10.07;;;;;;;7.35;60.78;95380.31;4989135;28;20250;-72
2022/09/24 06:00:00;;;;;;;13.20;9.50;;;;;;;7.59;60.66;95382.72;4986131;28;20662;-73
2022/09/24 06:02:26;;;;;;;10.70;9.07;;;;;;;7.73;59.79;95390.31;4986691;28;20228;-71
2022/09/24 06:04:51;;;;;;;8.90;8.17;;;;;;;7.87;58.75;95392.63;4986595;28;20230;-72
2022/09/24 06:07:17;;;;;;;8.90;8.07;;;;;;;8.17;57.72;95381.38;4988874;28;20227;-72
2022/09/24 06:09:43;;;;;;;9.90;8.53;;;;;;;7.98;58.30;95380.44;4983234;28;20594;-72
2022/09/24 06:12:09;;;;;;;9.33;8.10;;;;;;;8.15;57.92;95391.19;4990005;28;20211;-73
2022/09/24 06:14:35;;;;;;;8.47;7.67;;;;;;;8.23;57.95;95387.88;4984088;28;20199;-68
2022/09/24 06:17:00;;;;;;;8.57;7.77;;;;;;;8.31;57.81;95389.88;4984286;28;20231;-73
2022/09/24 06:19:26;;;;;;;8.30;7.57;;;;;;;8.42;57.51;95386.38;4986256;28;20235;-74
2022/09/24 06:21:51;;;;;;;9.17;8.27;;;;;;;8.45;56.79;95392.22;4986839;28;20219;-73
2022/09/24 06:24:17;;;;;;;7.00;6.40;;;;;;;8.62;55.93;95396.00;4988257;28;20195;-73
2022/09/24 06:26:42;;;;;;;6.73;6.20;;;;;;;8.67;55.52;95395.63;4986472;28;20890;-72
2022/09/24 06:29:08;;;;;;;8.30;6.07;;;;;;;8.45;56.51;95399.25;4988681;28;20219;-72
2022/09/24 06:31:33;;;;;;;6.70;6.10;;;;;;;8.57;56.20;95390.34;4985230;28;20381;-72
2022/09/24 06:34:01;;;;;;;5.47;4.97;;;;;;;8.70;55.80;95396.19;4986903;28;20223;-71
2022/09/24 06:36:27;;;;;;;5.00;4.60;;;;;;;8.81;55.10;95401.34;4986484;28;20230;-72
2022/09/24 06:38:52;;;;;;;6.03;5.47;;;;;;;8.87;54.65;95396.53;4987683;28;20895;-71
2022/09/24 06:41:18;;;;;;;6.20;5.70;;;;;;;8.91;54.78;95392.69;4985205;28;20223;-72
2022/09/24 06:43:43;;;;;;;6.20;5.60;;;;;;;9.06;54.19;95396.59;4982749;28;20948;-73
2022/09/24 06:46:09;;;;;;;5.80;5.30;;;;;;;9.06;54.36;95401.84;5002023;28;20224;-69
2022/09/24 06:48:37;;;;;;;5.73;5.23;;;;;;;9.13;54.16;95395.13;4989312;28;20223;-70
2022/09/24 06:51:03;;;;;;;7.63;5.83;;;;;;;9.24;54.10;95397.63;4987364;28;20211;-69
2022/09/24 06:53:29;;;;;;;6.53;5.90;;;;;;;9.26;55.09;95400.94;4987705;28;20204;-70
2022/09/24 06:56:02;;;;;;;7.33;6.17;;;;;;;9.32;54.59;95399.56;4986884;28;20216;-72
2022/09/24 06:58:28;;;;;;;7.03;6.33;;;;;;;9.36;54.59;95398.34;4985622;28;20269;-71
2022/09/24 07:00:58;;;;;;;7.28;6.40;;;;;;;9.36;54.56;95392.28;4986881;28;20235;-71
2022/09/24 07:03:25;;;;;;;9.02;6.88;;;;;;;9.43;55.12;95394.22;4982347;28;20662;-70
2022/09/24 07:05:50;;;;;;;7.90;6.40;;;;;;;9.48;54.65;95399.06;4987161;28;20223;-70
2022/09/24 07:08:16;;;;;;;9.90;6.90;;;;;;;9.39;54.92;95400.72;4987162;28;20545;-70
2022/09/24 07:10:43;;;;;;;8.07;6.37;;;;;;;9.47;54.33;95400.84;4985076;28;20351;-71
2022/09/24 07:13:11;;;;;;;8.30;6.10;;;;;;;9.64;54.15;95399.34;4983485;28;20227;-71
2022/09/24 07:15:36;;;;;;;6.65;6.05;;;;;;;9.72;54.25;95399.50;4983691;28;20714;-71
2022/09/24 07:18:02;;;;;;;7.72;6.63;;;;;;;9.87;53.73;95396.50;4985828;28;20236;-71
2022/09/24 07:20:27;;;;;;;9.20;6.55;;;;;;;9.97;53.58;95399.94;4987752;28;20278;-71
2022/09/24 07:22:54;;;;;;;6.88;6.03;;;;;;;10.03;53.34;95396.75;4986985;28;20263;-72
2022/09/24 07:25:19;;;;;;;7.78;6.00;;;;;;;10.14;53.20;95388.72;4986413;28;20220;-71
2022/09/24 07:27:45;;;;;;;6.00;5.50;;;;;;;10.26;52.27;95391.19;4987811;28;20240;-72
2022/09/24 07:30:11;;;;;;;7.22;5.90;;;;;;;10.25;52.67;95387.75;4984538;28;20211;-71
2022/09/24 07:32:37;;;;;;;8.13;6.05;;;;;;;10.30;52.49;95388.19;4986534;28;20251;-73
2022/09/24 07:35:03;;;;;;;7.70;6.20;;;;;;;10.36;52.40;95389.41;4982835;28;20223;-71
2022/09/24 07:37:31;;;;;;;6.95;6.35;;;;;;;10.36;51.80;95397.31;4985552;28;20231;-70
2022/09/24 07:39:57;;;;;;;8.57;6.50;;;;;;;10.55;50.94;95386.72;4987838;28;20588;-70
2022/09/24 07:42:28;;;;;;;8.48;6.97;;;;;;;10.44;51.81;95400.06;4985649;28;20228;-72
2022/09/24 07:44:55;;;;;;;7.85;7.15;;;;;;;10.49;51.17;95389.94;4985363;28;20259;-70
2022/09/24 07:47:21;;;;;;;7.63;6.75;;;;;;;10.43;51.57;95398.41;4983730;28;20590;-73
2022/09/24 07:49:46;;;;;;;9.75;7.20;;;;;;;10.21;52.68;95383.75;4987129;28;20220;-69
2022/09/24 07:52:12;;;;;;;8.32;7.43;;;;;;;10.47;52.12;95384.00;4985217;28;20231;-71
2022/09/24 07:54:37;;;;;;;8.35;7.35;;;;;;;10.59;51.51;95382.03;4978704;28;20233;-72
2022/09/24 07:57:08;;;;;;;7.72;7.03;;;;;;;10.69;51.59;95387.25;4984112;28;20680;-73
2022/09/24 07:59:33;;;;;;;7.30;6.60;;;;;;;10.73;50.76;95388.63;4999930;28;20239;-73
2022/09/24 08:01:59;;;;;;;6.95;6.35;;;;;;;10.64;51.27;95386.84;4987280;28;20307;-71
2022/09/24 08:04:24;;;;;;;8.75;7.03;;;;;;;10.86;51.00;95381.25;4986714;28;20651;-72
2022/09/24 08:06:52;;;;;;;7.97;6.57;;;;;;;10.91;51.03;95379.00;4983586;28;20226;-71
2022/09/24 08:09:18;;;;;;;9.10;6.97;;;;;;;10.94;51.20;95384.00;4989889;28;20425;-72
2022/09/24 08:11:43;;;;;;;7.60;6.50;;;;;;;11.10;50.55;95383.38;4984814;28;20210;-71
2022/09/24 08:14:09;;;;;;;7.25;6.50;;;;;;;11.09;50.27;95379.06;4984243;28;20251;-71
2022/09/24 08:16:34;;;;;;;6.97;6.05;;;;;;;11.01;50.17;95382.44;4987551;28;20251;-71
2022/09/24 08:19:00;;;;;;;6.75;6.10;;;;;;;11.08;49.70;95381.84;4984630;28;20707;-72
2022/09/24 08:21:27;;;;;;;6.80;6.20;;;;;;;11.07;49.68;95375.75;4985100;28;20243;-70
2022/09/24 08:23:52;;;;;;;7.03;6.33;;;;;;;11.10;49.74;95380.72;4981012;28;20219;-72
2022/09/24 08:26:18;;;;;;;9.47;6.40;;;;;;;11.30;48.91;95384.06;4980992;28;20495;-72
2022/09/24 08:28:43;;;;;;;6.38;5.78;;;;;;;11.47;48.70;95377.22;4983727;28;20227;-72
2022/09/24 08:31:12;;;;;;;6.75;6.05;;;;;;;11.52;48.81;95376.75;4983249;28;20231;-71
2022/09/24 08:33:39;;;;;;;8.70;6.07;;;;;;;11.63;48.99;95373.91;4983463;28;20238;-71
2022/09/24 08:36:08;;;;;;;6.88;6.03;;;;;;;11.61;48.61;95365.34;4982531;28;20666;-72
2022/09/24 08:38:33;;;;;;;6.95;6.35;;;;;;;11.65;48.29;95370.16;4982128;28;20403;-71
2022/09/24 08:41:08;;;;;;;8.93;6.07;;;;;;;11.77;48.61;95370.75;4980252;28;20929;-72
2022/09/24 08:43:56;;;;;;;8.23;6.10;;;;;;;11.86;48.34;95371.69;5016818;28;20242;-73
2022/09/24 08:49:26;;;;;;;6.60;6.00;;;;;;;12.01;47.80;95366.72;4989307;28;20319;-74
2022/09/24 08:52:11;;;;;;;7.75;5.95;;;;;;;12.07;48.45;95366.09;4987574;28;20223;-72
2022/09/24 08:54:37;;;;;;;6.63;6.03;;;;;;;12.04;47.43;95361.97;4988178;28;20238;-71
2022/09/24 08:57:11;;;;;;;7.45;6.03;;;;;;;12.20;47.00;95360.44;4985001;28;20199;-66
2022/09/24 08:59:42;;;;;;;9.07;6.47;;;;;;;12.45;46.66;95350.88;4987461;28;20258;-72
2022/09/24 09:02:38;;;;;;;6.80;5.90;;;;;;;12.71;45.75;95350.88;4985020;28;20336;-70
2022/09/24 09:05:28;;;;;;;8.68;6.72;;;;;;;12.80;45.55;95356.06;4985429;28;20714;-72
2022/09/24 09:08:17;;;;;;;6.75;5.70;;;;;;;12.80;45.85;95350.78;4988042;28;20309;-70
2022/09/24 09:10:42;;;;;;;7.22;6.32;;;;;;;12.99;45.47;95348.84;4986600;28;20311;-72
2022/09/24 09:13:20;;;;;;;6.15;5.55;;;;;;;13.12;45.20;95343.16;4988111;28;20318;-69
2022/09/24 09:15:52;;;;;;;6.57;5.63;;;;;;;13.25;44.47;95335.59;4984060;28;20250;-72
2022/09/24 09:18:28;;;;;;;8.82;5.63;;;;;;;13.30;44.29;95332.53;4982548;28;20294;-66
2022/09/24 09:21:02;;;;;;;7.28;5.80;;;;;;;13.43;43.86;95344.28;4983352;28;20675;-69
2022/09/24 09:23:34;;;;;;;6.30;5.22;;;;;;;13.66;43.21;95341.84;4987568;28;20224;-70
2022/09/24 09:25:59;;;;;;;6.20;5.57;;;;;;;13.77;42.90;95340.72;4986255;28;20223;-71
2022/09/24 09:28:26;;;;;;;7.05;5.60;;;;;;;13.85;42.90;95332.78;4986252;28;20731;-71
2022/09/24 09:31:29;;;;;;;6.40;5.30;;;;;;;14.10;42.68;95332.78;4985027;28;20224;-71
2022/09/24 09:34:06;;;;;;;7.93;5.97;;;;;;;14.29;42.17;95323.69;4981001;28;20246;-70
2022/09/24 09:36:50;;;;;;;6.50;5.90;;;;;;;14.41;41.92;95322.38;4981206;28;20230;-70
2022/09/24 09:39:31;;;;;;;7.05;6.20;;;;;;;14.60;41.68;95323.84;4983873;28;20216;-70
2022/09/24 09:41:57;;;;;;;8.80;5.72;;;;;;;14.60;40.54;95326.50;4985865;28;20239;-70
2022/09/24 09:44:28;;;;;;;6.90;6.20;;;;;;;14.46;40.45;95319.19;4985178;28;20244;-70
2022/09/24 09:47:10;;;;;;;6.97;6.28;;;;;;;14.61;40.52;95311.44;4989209;28;20224;-69
2022/09/24 09:49:37;;;;;;;8.70;5.95;;;;;;;14.64;40.63;95306.63;4982221;28;20576;-70
2022/09/24 09:52:12;;;;;;;6.10;5.50;;;;;;;14.61;40.44;95303.50;4981264;28;20227;-69
2022/09/24 09:54:40;;;;;;;6.07;5.47;;;;;;;14.91;40.00;95304.53;4980610;28;20226;-70
2022/09/24 09:57:11;;;;;;;7.30;5.70;;;;;;;14.88;39.64;95300.41;4989731;28;20239;-71
2022/09/24 09:59:37;;;;;;;5.82;5.28;;;;;;;15.18;39.32;95284.72;4985608;28;20687;-69
2022/09/24 10:02:10;;;;;;;6.20;5.57;;;;;;;15.49;38.31;95279.41;4984187;28;20215;-66
2022/09/24 10:04:40;;;;;;;7.20;6.50;;;;;;;15.51;37.85;95281.91;4982747;28;20230;-67
2022/09/24 10:07:09;;;;;;;6.30;5.78;;;;;;;15.33;38.10;95287.47;4982718;28;20223;-68
2022/09/24 10:09:35;;;;;;;6.72;6.05;;;;;;;15.60;37.20;95278.19;4984918;28;20220;-66
2022/09/24 10:12:21;;;;;;;7.85;5.90;;;;;;;15.68;36.99;95280.78;4988113;28;20200;-66
2022/09/24 10:15:01;;;;;;;8.52;5.97;;;;;;;15.73;37.17;95277.63;4984910;28;20598;-65
2022/09/24 10:17:35;;;;;;;6.22;5.72;;;;;;;15.75;37.48;95273.81;4980111;28;20282;-67
2022/09/24 10:20:06;;;;;;;7.00;6.05;;;;;;;15.99;37.56;95266.66;4990224;28;20301;-66
2022/09/24 10:22:32;;;;;;;9.85;5.80;;;;;;;16.04;38.08;95269.63;4987051;28;20624;-66
2022/09/24 10:24:59;;;;;;;9.32;5.78;;;;;;;16.08;36.92;95266.41;4985831;28;20227;-66
2022/09/24 10:27:33;;;;;;;5.82;5.22;;;;;;;16.32;36.64;95256.56;4987978;28;20314;-67
2022/09/24 10:32:47;;;;;;;8.27;5.22;;;;;;;16.34;35.97;95254.56;4982361;28;20226;-67
2022/09/24 10:35:27;;;;;;;6.82;5.25;;;;;;;16.60;34.41;95254.13;4986960;28;20228;-66
2022/09/24 10:37:54;;;;;;;6.47;4.68;;;;;;;16.75;34.67;95262.88;4981990;28;20227;-66
2022/09/24 10:40:29;;;;;;;5.40;4.50;;;;;;;16.76;33.57;95253.13;4986356;28;20223;-66
2022/09/24 10:43:03;;;;;;;5.10;4.60;;;;;;;16.75;34.54;95252.28;4985751;28;20219;-66
2022/09/24 10:46:09;;;;;;;7.40;4.57;;;;;;;16.82;33.28;95249.75;5011533;28;20223;-67
2022/09/24 10:48:55;;;;;;;4.53;3.95;;;;;;;17.10;33.47;95255.19;4980009;28;20219;-64
2022/09/24 10:51:55;;;;;;;7.53;4.18;;;;;;;17.29;32.72;95247.63;5018053;28;20215;-67
2022/09/24 10:54:40;;;;;;;5.40;4.80;;;;;;;17.55;34.70;95249.75;5015457;28;20302;-66
2022/09/24 10:57:24;;;;;;;4.78;4.32;;;;;;;17.74;32.79;95245.66;4989925;28;20294;-67
2022/09/24 11:00:07;;;;;;;5.00;4.40;;;;;;;17.62;33.41;95240.84;4983665;28;20200;-66
2022/09/24 11:02:52;;;;;;;6.18;4.30;;;;;;;17.99;32.64;95244.28;4984270;28;20223;-65
2022/09/24 11:05:22;;;;;;;7.13;4.43;;;;;;;18.13;32.64;95244.38;4979055;28;20227;-66
2022/09/24 11:08:36;;;;;;;6.13;4.80;;;;;;;18.28;31.29;95240.63;4981430;28;20252;-67
2022/09/24 11:11:30;;;;;;;4.55;3.97;;;;;;;18.38;30.79;95237.59;4964825;28;20232;-64
2022/09/24 11:14:27;;;;;;;3.42;3.13;;;;;;;18.28;29.71;95235.28;4983844;28;20211;-67
2022/09/24 11:20:16;;;;;;;3.97;1.90;;;;;;;18.52;27.44;95218.03;5007784;28;20242;-67
2022/09/24 11:23:05;;;;;;;2.33;2.10;;;;;;;18.64;27.22;95225.47;4976093;28;20286;-67
2022/09/24 11:25:46;;;;;;;2.17;1.80;;;;;;;18.82;27.12;95212.50;4893345;29;20722;-67
2022/09/24 11:28:57;;;;;;;3.20;2.03;;;;;;;18.81;26.06;95210.81;4914056;29;20225;-68
2022/09/24 11:31:50;;;;;;;2.30;2.10;;;;;;;19.06;26.19;95204.97;4899903;29;20221;-68
2022/09/24 11:34:15;;;;;;;3.28;2.08;;;;;;;19.13;25.69;95203.16;4910031;29;20278;-68
2022/09/24 11:36:46;;;;;;;2.20;2.00;;;;;;;19.34;26.64;95195.03;4919726;29;20234;-68
2022/09/24 11:39:12;;;;;;;2.20;2.00;;;;;;;19.39;24.83;95203.22;4914839;29;20230;-70
2022/09/24 11:41:43;;;;;;;3.55;1.85;;;;;;;19.44;24.98;95196.50;4914637;29;20274;-68
2022/09/24 11:44:10;;;;;;;2.47;1.70;;;;;;;19.64;24.22;95191.16;4919544;29;20312;-70
2022/09/24 11:46:43;;;;;;;1.70;1.50;;;;;;;19.75;24.40;95183.44;4913951;29;20226;-69
2022/09/24 11:49:18;;;;;;;2.33;1.88;;;;;;;19.81;23.63;95187.13;4929260;29;20220;-70
2022/09/24 11:52:00;;;;;;;2.50;1.73;;;;;;;20.17;24.23;95188.53;4919742;29;20216;-70
2022/09/24 11:54:33;;;;;;;2.10;1.90;;;;;;;20.59;24.50;95176.56;4910747;29;20253;-71
2022/09/24 11:57:12;;;;;;;2.03;1.92;;;;;;;21.14;23.87;95184.16;4932929;29;20224;-71
2022/09/24 11:59:44;;;;;;;3.80;2.50;;;;;;;21.11;23.31;95180.06;4929913;28;20334;-70
2022/09/24 12:02:24;;;;;;;2.20;1.98;;;;;;;21.34;23.40;95176.06;4973836;28;20236;-72
2022/09/24 12:04:55;;;;;;;3.00;2.00;;;;;;;21.38;24.29;95173.78;5006770;28;20327;-71
2022/09/24 12:07:29;;;;;;;3.38;2.33;;;;;;;21.39;23.41;95168.22;5030320;28;20223;-71